sensor_id;sensor_type;location;lat;lon;timestamp;temperature;humidity
423;DHT22;198;48.752;9.180;2022-11-20T00:01:38;6.30;99.90
423;DHT22;198;48.752;9.180;2022-11-20T00:04:04;6.30;99.90
423;DHT22;198;48.752;9.180;2022-11-20T00:06:29;6.30;99.90
423;DHT22;198;48.752;9.180;2022-11-20T00:08:57;6.30;99.90
423;DHT22;198;48.752;9.180;2022-11-20T00:11:24;6.30;99.90
423;DHT22;198;48.752;9.180;2022-11-20T00:13:52;6.20;99.90
423;DHT22;198;48.752;9.180;2022-11-20T00:16:20;6.20;99.90
423;DHT22;198;48.752;9.180;2022-11-20T00:18:46;6.30;99.90
423;DHT22;198;48.752;9.180;2022-11-20T00:21:15;6.30;99.90
423;DHT22;198;48.752;9.180;2022-11-20T00:23:41;6.30;99.90
423;DHT22;198;48.752;9.180;2022-11-20T00:26:10;6.30;99.90
423;DHT22;198;48.752;9.180;2022-11-20T00:28:36;6.30;99.90
423;DHT22;198;48.752;9.180;2022-11-20T00:31:03;6.30;99.90
423;DHT22;198;48.752;9.180;2022-11-20T00:33:29;6.30;99.90
423;DHT22;198;48.752;9.180;2022-11-20T00:36:09;6.30;99.90
423;DHT22;198;48.752;9.180;2022-11-20T00:38:35;6.30;99.90
423;DHT22;198;48.752;9.180;2022-11-20T00:41:03;6.40;99.90
423;DHT22;198;48.752;9.180;2022-11-20T00:43:29;6.30;99.90
423;DHT22;198;48.752;9.180;2022-11-20T00:46:06;6.40;99.90
423;DHT22;198;48.752;9.180;2022-11-20T00:48:31;6.40;99.90
423;DHT22;198;48.752;9.180;2022-11-20T00:50:57;6.40;99.90
423;DHT22;198;48.752;9.180;2022-11-20T00:53:23;6.40;99.90
423;DHT22;198;48.752;9.180;2022-11-20T00:55:57;6.40;99.90
423;DHT22;198;48.752;9.180;2022-11-20T00:58:23;6.40;99.90
423;DHT22;198;48.752;9.180;2022-11-20T01:00:49;6.40;99.90
423;DHT22;198;48.752;9.180;2022-11-20T01:03:16;6.40;99.90
423;DHT22;198;48.752;9.180;2022-11-20T01:05:42;6.40;99.90
423;DHT22;198;48.752;9.180;2022-11-20T01:08:08;6.40;99.90
423;DHT22;198;48.752;9.180;2022-11-20T01:10:33;6.40;99.90
423;DHT22;198;48.752;9.180;2022-11-20T01:12:59;6.40;99.90
423;DHT22;198;48.752;9.180;2022-11-20T01:15:43;6.40;99.90
423;DHT22;198;48.752;9.180;2022-11-20T01:18:09;6.30;99.90
423;DHT22;198;48.752;9.180;2022-11-20T01:20:35;6.30;99.90
423;DHT22;198;48.752;9.180;2022-11-20T01:23:02;6.30;99.90
423;DHT22;198;48.752;9.180;2022-11-20T01:25:27;6.30;99.90
423;DHT22;198;48.752;9.180;2022-11-20T01:27:53;6.20;99.90
423;DHT22;198;48.752;9.180;2022-11-20T01:30:18;6.20;99.90
423;DHT22;198;48.752;9.180;2022-11-20T01:32:44;6.20;99.90
423;DHT22;198;48.752;9.180;2022-11-20T01:35:09;6.20;99.90
423;DHT22;198;48.752;9.180;2022-11-20T01:37:35;6.20;99.90
423;DHT22;198;48.752;9.180;2022-11-20T01:40:01;6.20;99.90
423;DHT22;198;48.752;9.180;2022-11-20T01:42:27;6.10;99.90
423;DHT22;198;48.752;9.180;2022-11-20T01:48:42;6.00;99.90
423;DHT22;198;48.752;9.180;2022-11-20T01:51:29;6.00;99.90
423;DHT22;198;48.752;9.180;2022-11-20T01:54:00;5.80;99.90
423;DHT22;198;48.752;9.180;2022-11-20T01:56:27;5.80;99.90
423;DHT22;198;48.752;9.180;2022-11-20T01:58:57;5.70;99.90
423;DHT22;198;48.752;9.180;2022-11-20T02:01:24;5.60;99.90
423;DHT22;198;48.752;9.180;2022-11-20T02:03:50;5.60;99.90
423;DHT22;198;48.752;9.180;2022-11-20T02:06:32;5.60;99.90
423;DHT22;198;48.752;9.180;2022-11-20T02:09:00;5.60;99.90
423;DHT22;198;48.752;9.180;2022-11-20T02:11:25;5.60;99.90
423;DHT22;198;48.752;9.180;2022-11-20T02:13:51;5.60;99.90
423;DHT22;198;48.752;9.180;2022-11-20T02:16:21;5.50;99.90
423;DHT22;198;48.752;9.180;2022-11-20T02:18:47;5.60;99.90
423;DHT22;198;48.752;9.180;2022-11-20T02:21:24;5.60;99.90
423;DHT22;198;48.752;9.180;2022-11-20T02:24:14;5.70;99.90
423;DHT22;198;48.752;9.180;2022-11-20T02:29:16;5.60;99.90
423;DHT22;198;48.752;9.180;2022-11-20T02:31:44;5.60;99.90
423;DHT22;198;48.752;9.180;2022-11-20T02:34:10;5.60;99.90
423;DHT22;198;48.752;9.180;2022-11-20T02:36:36;5.60;99.90
423;DHT22;198;48.752;9.180;2022-11-20T02:39:05;5.60;99.90
423;DHT22;198;48.752;9.180;2022-11-20T02:41:36;5.60;99.90
423;DHT22;198;48.752;9.180;2022-11-20T02:44:03;5.50;99.90
423;DHT22;198;48.752;9.180;2022-11-20T02:46:29;5.50;99.90
423;DHT22;198;48.752;9.180;2022-11-20T02:48:55;5.50;99.90
423;DHT22;198;48.752;9.180;2022-11-20T02:51:21;5.50;99.90
423;DHT22;198;48.752;9.180;2022-11-20T02:53:46;5.60;99.90
423;DHT22;198;48.752;9.180;2022-11-20T02:56:12;5.70;99.90
423;DHT22;198;48.752;9.180;2022-11-20T02:58:37;5.70;99.90
423;DHT22;198;48.752;9.180;2022-11-20T03:01:03;5.80;99.90
423;DHT22;198;48.752;9.180;2022-11-20T03:03:29;5.90;99.90
423;DHT22;198;48.752;9.180;2022-11-20T03:05:54;6.00;99.90
423;DHT22;198;48.752;9.180;2022-11-20T03:08:20;6.10;99.90
423;DHT22;198;48.752;9.180;2022-11-20T03:10:45;6.10;99.90
423;DHT22;198;48.752;9.180;2022-11-20T03:13:10;6.10;99.90
423;DHT22;198;48.752;9.180;2022-11-20T03:15:37;6.10;99.90
423;DHT22;198;48.752;9.180;2022-11-20T03:18:03;6.20;99.90
423;DHT22;198;48.752;9.180;2022-11-20T03:20:28;6.10;99.90
423;DHT22;198;48.752;9.180;2022-11-20T03:22:54;6.10;99.90
423;DHT22;198;48.752;9.180;2022-11-20T03:25:21;6.10;99.90
423;DHT22;198;48.752;9.180;2022-11-20T03:27:46;6.20;99.90
423;DHT22;198;48.752;9.180;2022-11-20T03:30:13;6.10;99.90
423;DHT22;198;48.752;9.180;2022-11-20T03:32:38;6.00;99.90
423;DHT22;198;48.752;9.180;2022-11-20T03:35:04;6.00;99.90
423;DHT22;198;48.752;9.180;2022-11-20T03:37:30;6.00;99.90
423;DHT22;198;48.752;9.180;2022-11-20T03:39:55;6.00;99.90
423;DHT22;198;48.752;9.180;2022-11-20T03:42:21;6.00;99.90
423;DHT22;198;48.752;9.180;2022-11-20T03:45:05;6.00;99.90
423;DHT22;198;48.752;9.180;2022-11-20T03:47:31;5.90;99.90
423;DHT22;198;48.752;9.180;2022-11-20T03:49:56;5.80;99.90
423;DHT22;198;48.752;9.180;2022-11-20T03:52:22;5.70;99.90
423;DHT22;198;48.752;9.180;2022-11-20T03:54:47;5.70;99.90
423;DHT22;198;48.752;9.180;2022-11-20T03:57:13;5.60;99.90
423;DHT22;198;48.752;9.180;2022-11-20T03:59:38;5.50;99.90
423;DHT22;198;48.752;9.180;2022-11-20T04:02:04;5.50;99.90
423;DHT22;198;48.752;9.180;2022-11-20T04:04:29;5.40;99.90
423;DHT22;198;48.752;9.180;2022-11-20T04:06:55;5.30;99.90
423;DHT22;198;48.752;9.180;2022-11-20T04:09:20;5.30;99.90
423;DHT22;198;48.752;9.180;2022-11-20T04:11:46;5.20;99.90
423;DHT22;198;48.752;9.180;2022-11-20T04:14:15;5.30;99.90
423;DHT22;198;48.752;9.180;2022-11-20T04:16:42;5.30;99.90
423;DHT22;198;48.752;9.180;2022-11-20T04:19:11;5.20;99.90
423;DHT22;198;48.752;9.180;2022-11-20T04:21:37;5.20;99.90
423;DHT22;198;48.752;9.180;2022-11-20T04:24:03;5.20;99.90
423;DHT22;198;48.752;9.180;2022-11-20T04:26:29;5.20;99.90
423;DHT22;198;48.752;9.180;2022-11-20T04:28:56;5.20;99.90
423;DHT22;198;48.752;9.180;2022-11-20T04:31:27;5.20;99.90
423;DHT22;198;48.752;9.180;2022-11-20T04:33:53;5.20;99.90
423;DHT22;198;48.752;9.180;2022-11-20T04:36:22;5.30;99.90
423;DHT22;198;48.752;9.180;2022-11-20T04:38:56;5.30;99.90
423;DHT22;198;48.752;9.180;2022-11-20T04:41:24;5.30;99.90
423;DHT22;198;48.752;9.180;2022-11-20T04:43:51;5.30;99.90
423;DHT22;198;48.752;9.180;2022-11-20T04:46:18;5.30;99.90
423;DHT22;198;48.752;9.180;2022-11-20T04:48:44;5.30;99.90
423;DHT22;198;48.752;9.180;2022-11-20T04:51:10;5.40;99.90
423;DHT22;198;48.752;9.180;2022-11-20T04:53:35;5.40;99.90
423;DHT22;198;48.752;9.180;2022-11-20T04:56:07;5.40;99.90
423;DHT22;198;48.752;9.180;2022-11-20T04:58:33;5.40;99.90
423;DHT22;198;48.752;9.180;2022-11-20T05:01:06;5.40;99.90
423;DHT22;198;48.752;9.180;2022-11-20T05:03:32;5.40;99.90
423;DHT22;198;48.752;9.180;2022-11-20T05:06:05;5.50;99.90
423;DHT22;198;48.752;9.180;2022-11-20T05:08:31;5.50;99.90
423;DHT22;198;48.752;9.180;2022-11-20T05:11:10;5.60;99.90
423;DHT22;198;48.752;9.180;2022-11-20T05:13:36;5.60;99.90
423;DHT22;198;48.752;9.180;2022-11-20T05:16:07;5.70;99.90
423;DHT22;198;48.752;9.180;2022-11-20T05:18:34;5.70;99.90
423;DHT22;198;48.752;9.180;2022-11-20T05:21:00;5.70;99.90
423;DHT22;198;48.752;9.180;2022-11-20T05:23:26;5.70;99.90
423;DHT22;198;48.752;9.180;2022-11-20T05:25:53;5.70;99.90
423;DHT22;198;48.752;9.180;2022-11-20T05:28:19;5.80;99.90
423;DHT22;198;48.752;9.180;2022-11-20T05:30:45;5.80;99.90
423;DHT22;198;48.752;9.180;2022-11-20T05:33:10;5.70;99.90
423;DHT22;198;48.752;9.180;2022-11-20T05:35:36;5.70;99.90
423;DHT22;198;48.752;9.180;2022-11-20T05:38:01;5.70;99.90
423;DHT22;198;48.752;9.180;2022-11-20T05:40:27;5.70;99.90
423;DHT22;198;48.752;9.180;2022-11-20T05:42:52;5.70;99.90
423;DHT22;198;48.752;9.180;2022-11-20T05:45:18;5.70;99.90
423;DHT22;198;48.752;9.180;2022-11-20T05:47:44;5.70;99.90
423;DHT22;198;48.752;9.180;2022-11-20T05:50:09;5.70;99.90
423;DHT22;198;48.752;9.180;2022-11-20T05:52:35;5.70;99.90
423;DHT22;198;48.752;9.180;2022-11-20T05:55:00;5.80;99.90
423;DHT22;198;48.752;9.180;2022-11-20T05:57:26;5.80;99.90
423;DHT22;198;48.752;9.180;2022-11-20T05:59:51;5.80;99.90
423;DHT22;198;48.752;9.180;2022-11-20T06:02:17;5.80;99.90
423;DHT22;198;48.752;9.180;2022-11-20T06:04:42;5.90;99.90
423;DHT22;198;48.752;9.180;2022-11-20T06:07:08;6.00;99.90
423;DHT22;198;48.752;9.180;2022-11-20T06:09:34;6.00;99.90
423;DHT22;198;48.752;9.180;2022-11-20T06:11:59;6.10;99.90
423;DHT22;198;48.752;9.180;2022-11-20T06:14:25;6.10;99.90
423;DHT22;198;48.752;9.180;2022-11-20T06:16:50;6.10;99.90
423;DHT22;198;48.752;9.180;2022-11-20T06:19:16;6.20;99.90
423;DHT22;198;48.752;9.180;2022-11-20T06:21:41;6.20;99.90
423;DHT22;198;48.752;9.180;2022-11-20T06:24:09;6.30;99.90
423;DHT22;198;48.752;9.180;2022-11-20T06:26:35;6.30;99.90
423;DHT22;198;48.752;9.180;2022-11-20T06:29:00;6.30;99.90
423;DHT22;198;48.752;9.180;2022-11-20T06:31:26;6.30;99.90
423;DHT22;198;48.752;9.180;2022-11-20T06:33:52;6.40;99.90
423;DHT22;198;48.752;9.180;2022-11-20T06:36:19;6.30;99.90
423;DHT22;198;48.752;9.180;2022-11-20T06:38:45;6.30;99.90
423;DHT22;198;48.752;9.180;2022-11-20T06:41:13;6.30;99.90
423;DHT22;198;48.752;9.180;2022-11-20T06:43:39;6.30;99.90
423;DHT22;198;48.752;9.180;2022-11-20T06:46:05;6.20;99.90
423;DHT22;198;48.752;9.180;2022-11-20T06:48:31;6.20;99.90
423;DHT22;198;48.752;9.180;2022-11-20T06:50:57;6.20;99.90
423;DHT22;198;48.752;9.180;2022-11-20T06:53:23;6.20;99.90
423;DHT22;198;48.752;9.180;2022-11-20T06:55:50;6.10;99.90
423;DHT22;198;48.752;9.180;2022-11-20T06:58:16;6.10;99.90
423;DHT22;198;48.752;9.180;2022-11-20T07:00:43;6.00;99.90
423;DHT22;198;48.752;9.180;2022-11-20T07:03:10;6.00;99.90
423;DHT22;198;48.752;9.180;2022-11-20T07:05:37;6.00;99.90
423;DHT22;198;48.752;9.180;2022-11-20T07:08:04;6.00;99.90
423;DHT22;198;48.752;9.180;2022-11-20T07:10:30;5.90;99.90
423;DHT22;198;48.752;9.180;2022-11-20T07:12:55;5.90;99.90
423;DHT22;198;48.752;9.180;2022-11-20T07:15:23;5.90;99.90
423;DHT22;198;48.752;9.180;2022-11-20T07:17:48;6.00;99.90
423;DHT22;198;48.752;9.180;2022-11-20T07:20:15;6.00;99.90
423;DHT22;198;48.752;9.180;2022-11-20T07:22:40;6.00;99.90
423;DHT22;198;48.752;9.180;2022-11-20T07:25:08;6.10;99.90
423;DHT22;198;48.752;9.180;2022-11-20T07:27:33;6.20;99.90
423;DHT22;198;48.752;9.180;2022-11-20T07:29:59;6.30;99.90
423;DHT22;198;48.752;9.180;2022-11-20T07:32:25;6.30;99.90
423;DHT22;198;48.752;9.180;2022-11-20T07:34:51;6.30;99.90
423;DHT22;198;48.752;9.180;2022-11-20T07:37:17;6.30;99.90
423;DHT22;198;48.752;9.180;2022-11-20T07:39:43;6.40;99.90
423;DHT22;198;48.752;9.180;2022-11-20T07:42:09;6.50;99.90
423;DHT22;198;48.752;9.180;2022-11-20T07:44:35;6.50;99.90
423;DHT22;198;48.752;9.180;2022-11-20T07:47:02;6.60;99.90
423;DHT22;198;48.752;9.180;2022-11-20T07:49:28;6.60;99.90
423;DHT22;198;48.752;9.180;2022-11-20T07:51:53;6.70;99.90
423;DHT22;198;48.752;9.180;2022-11-20T07:54:22;6.80;99.90
423;DHT22;198;48.752;9.180;2022-11-20T07:56:48;6.80;99.90
423;DHT22;198;48.752;9.180;2022-11-20T07:59:14;6.80;99.90
423;DHT22;198;48.752;9.180;2022-11-20T08:01:41;6.80;99.90
423;DHT22;198;48.752;9.180;2022-11-20T08:04:07;7.00;99.90
423;DHT22;198;48.752;9.180;2022-11-20T08:06:33;7.10;99.90
423;DHT22;198;48.752;9.180;2022-11-20T08:08:58;7.00;99.90
423;DHT22;198;48.752;9.180;2022-11-20T08:11:24;7.00;99.90
423;DHT22;198;48.752;9.180;2022-11-20T08:14:08;7.00;99.90
423;DHT22;198;48.752;9.180;2022-11-20T08:16:44;7.00;99.90
423;DHT22;198;48.752;9.180;2022-11-20T08:19:10;6.90;99.90
423;DHT22;198;48.752;9.180;2022-11-20T08:21:36;7.00;99.90
423;DHT22;198;48.752;9.180;2022-11-20T08:24:01;7.10;99.90
423;DHT22;198;48.752;9.180;2022-11-20T08:26:27;7.10;99.90
423;DHT22;198;48.752;9.180;2022-11-20T08:28:56;7.10;99.90
423;DHT22;198;48.752;9.180;2022-11-20T08:31:23;7.00;99.90
423;DHT22;198;48.752;9.180;2022-11-20T08:33:49;6.90;99.90
423;DHT22;198;48.752;9.180;2022-11-20T08:36:15;6.90;99.90
423;DHT22;198;48.752;9.180;2022-11-20T08:38:41;6.80;99.90
423;DHT22;198;48.752;9.180;2022-11-20T08:41:07;6.90;99.90
423;DHT22;198;48.752;9.180;2022-11-20T08:44:00;6.90;99.90
423;DHT22;198;48.752;9.180;2022-11-20T08:46:31;6.80;99.90
423;DHT22;198;48.752;9.180;2022-11-20T08:48:58;6.80;99.90
423;DHT22;198;48.752;9.180;2022-11-20T08:51:23;6.80;99.90
423;DHT22;198;48.752;9.180;2022-11-20T08:53:49;6.90;99.90
423;DHT22;198;48.752;9.180;2022-11-20T08:56:15;7.20;99.90
423;DHT22;198;48.752;9.180;2022-11-20T08:58:40;7.40;99.90
423;DHT22;198;48.752;9.180;2022-11-20T09:01:06;7.80;99.90
423;DHT22;198;48.752;9.180;2022-11-20T09:03:32;8.20;99.90
423;DHT22;198;48.752;9.180;2022-11-20T09:05:59;8.60;99.90
423;DHT22;198;48.752;9.180;2022-11-20T09:08:26;8.90;99.90
423;DHT22;198;48.752;9.180;2022-11-20T09:10:53;8.60;99.90
423;DHT22;198;48.752;9.180;2022-11-20T09:13:20;8.30;99.90
423;DHT22;198;48.752;9.180;2022-11-20T09:15:45;8.00;99.90
423;DHT22;198;48.752;9.180;2022-11-20T09:18:11;7.90;99.90
423;DHT22;198;48.752;9.180;2022-11-20T09:20:36;7.90;99.90
423;DHT22;198;48.752;9.180;2022-11-20T09:23:02;7.80;99.90
423;DHT22;198;48.752;9.180;2022-11-20T09:25:27;7.70;99.90
423;DHT22;198;48.752;9.180;2022-11-20T09:27:57;7.60;99.90
423;DHT22;198;48.752;9.180;2022-11-20T09:30:22;7.60;99.90
423;DHT22;198;48.752;9.180;2022-11-20T09:32:48;7.70;99.90
423;DHT22;198;48.752;9.180;2022-11-20T09:35:13;7.50;99.90
423;DHT22;198;48.752;9.180;2022-11-20T09:37:40;7.40;99.90
423;DHT22;198;48.752;9.180;2022-11-20T09:40:06;7.40;99.90
423;DHT22;198;48.752;9.180;2022-11-20T09:42:40;7.40;99.90
423;DHT22;198;48.752;9.180;2022-11-20T09:48:41;7.40;99.90
423;DHT22;198;48.752;9.180;2022-11-20T09:54:16;7.30;99.90
423;DHT22;198;48.752;9.180;2022-11-20T09:56:46;7.30;99.90
423;DHT22;198;48.752;9.180;2022-11-20T09:59:35;7.20;99.90
423;DHT22;198;48.752;9.180;2022-11-20T10:02:08;7.30;99.90
423;DHT22;198;48.752;9.180;2022-11-20T10:04:42;7.40;99.90
423;DHT22;198;48.752;9.180;2022-11-20T10:07:20;7.30;99.90
423;DHT22;198;48.752;9.180;2022-11-20T10:09:55;7.30;99.90
423;DHT22;198;48.752;9.180;2022-11-20T10:21:12;7.10;99.90
423;DHT22;198;48.752;9.180;2022-11-20T10:24:02;7.20;99.90
423;DHT22;198;48.752;9.180;2022-11-20T10:30:00;7.10;99.90
423;DHT22;198;48.752;9.180;2022-11-20T10:32:35;6.90;99.90
423;DHT22;198;48.752;9.180;2022-11-20T10:35:27;6.80;99.90
423;DHT22;198;48.752;9.180;2022-11-20T10:37:56;6.80;99.90
423;DHT22;198;48.752;9.180;2022-11-20T10:40:34;6.70;99.90
423;DHT22;198;48.752;9.180;2022-11-20T10:43:04;6.70;99.90
423;DHT22;198;48.752;9.180;2022-11-20T10:45:39;6.70;99.90
423;DHT22;198;48.752;9.180;2022-11-20T10:48:12;6.70;99.90
423;DHT22;198;48.752;9.180;2022-11-20T10:50:49;6.70;99.90
423;DHT22;198;48.752;9.180;2022-11-20T10:56:19;6.70;99.90
423;DHT22;198;48.752;9.180;2022-11-20T10:59:08;6.70;99.90
423;DHT22;198;48.752;9.180;2022-11-20T11:01:42;6.80;99.90
423;DHT22;198;48.752;9.180;2022-11-20T11:07:16;6.90;99.90
423;DHT22;198;48.752;9.180;2022-11-20T11:09:47;6.80;99.90
423;DHT22;198;48.752;9.180;2022-11-20T11:12:13;6.80;99.90
423;DHT22;198;48.752;9.180;2022-11-20T11:14:43;6.90;99.90
423;DHT22;198;48.752;9.180;2022-11-20T11:17:26;6.90;99.90
423;DHT22;198;48.752;9.180;2022-11-20T11:20:04;6.90;99.90
423;DHT22;198;48.752;9.180;2022-11-20T11:22:32;6.90;99.90
423;DHT22;198;48.752;9.180;2022-11-20T11:24:58;6.90;99.90
423;DHT22;198;48.752;9.180;2022-11-20T11:27:24;7.10;99.90
423;DHT22;198;48.752;9.180;2022-11-20T11:29:50;7.20;99.90
423;DHT22;198;48.752;9.180;2022-11-20T11:32:26;7.60;99.90
423;DHT22;198;48.752;9.180;2022-11-20T11:35:06;8.00;99.90
423;DHT22;198;48.752;9.180;2022-11-20T11:37:37;8.50;99.90
423;DHT22;198;48.752;9.180;2022-11-20T11:40:05;8.90;99.90
423;DHT22;198;48.752;9.180;2022-11-20T11:42:31;9.10;99.90
423;DHT22;198;48.752;9.180;2022-11-20T11:44:59;9.20;99.90
423;DHT22;198;48.752;9.180;2022-11-20T11:47:36;9.50;99.90
423;DHT22;198;48.752;9.180;2022-11-20T11:55:29;10.40;99.90
423;DHT22;198;48.752;9.180;2022-11-20T12:01:02;11.00;99.90
423;DHT22;198;48.752;9.180;2022-11-20T12:03:37;11.20;99.90
423;DHT22;198;48.752;9.180;2022-11-20T12:06:14;11.30;99.90
423;DHT22;198;48.752;9.180;2022-11-20T12:16:40;10.80;99.90
423;DHT22;198;48.752;9.180;2022-11-20T12:19:13;10.40;99.90
423;DHT22;198;48.752;9.180;2022-11-20T12:24:53;9.70;99.90
423;DHT22;198;48.752;9.180;2022-11-20T12:30:14;10.30;99.90
423;DHT22;198;48.752;9.180;2022-11-20T12:32:52;10.90;99.90
423;DHT22;198;48.752;9.180;2022-11-20T12:52:56;9.70;99.90
423;DHT22;198;48.752;9.180;2022-11-20T12:58:43;9.20;99.90
423;DHT22;198;48.752;9.180;2022-11-20T13:07:09;9.10;99.90
423;DHT22;198;48.752;9.180;2022-11-20T13:09:40;9.10;99.90
423;DHT22;198;48.752;9.180;2022-11-20T13:12:18;9.00;99.90
423;DHT22;198;48.752;9.180;2022-11-20T13:14:53;8.90;99.90
423;DHT22;198;48.752;9.180;2022-11-20T13:17:33;8.90;99.90
423;DHT22;198;48.752;9.180;2022-11-20T13:20:04;9.20;99.90
423;DHT22;198;48.752;9.180;2022-11-20T13:25:21;9.20;99.90
423;DHT22;198;48.752;9.180;2022-11-20T13:27:48;9.20;99.70
423;DHT22;198;48.752;9.180;2022-11-20T13:30:18;9.30;99.80
423;DHT22;198;48.752;9.180;2022-11-20T13:35:31;9.10;98.90
423;DHT22;198;48.752;9.180;2022-11-20T13:38:05;8.80;99.00
423;DHT22;198;48.752;9.180;2022-11-20T13:40:32;8.60;99.80
423;DHT22;198;48.752;9.180;2022-11-20T13:46:00;8.50;99.90
423;DHT22;198;48.752;9.180;2022-11-20T13:48:39;8.50;99.90
423;DHT22;198;48.752;9.180;2022-11-20T13:51:11;8.50;99.90
423;DHT22;198;48.752;9.180;2022-11-20T13:57:00;8.80;99.90
423;DHT22;198;48.752;9.180;2022-11-20T13:59:52;9.00;99.90
423;DHT22;198;48.752;9.180;2022-11-20T14:02:20;9.00;99.90
423;DHT22;198;48.752;9.180;2022-11-20T14:04:49;8.90;99.90
423;DHT22;198;48.752;9.180;2022-11-20T14:07:18;8.80;99.90
423;DHT22;198;48.752;9.180;2022-11-20T14:09:54;8.80;99.90
423;DHT22;198;48.752;9.180;2022-11-20T14:12:23;8.80;99.90
423;DHT22;198;48.752;9.180;2022-11-20T14:14:53;8.60;99.90
423;DHT22;198;48.752;9.180;2022-11-20T14:17:20;8.50;99.90
423;DHT22;198;48.752;9.180;2022-11-20T14:19:48;8.40;99.90
423;DHT22;198;48.752;9.180;2022-11-20T14:22:20;8.30;99.90
423;DHT22;198;48.752;9.180;2022-11-20T14:24:46;8.20;99.90
423;DHT22;198;48.752;9.180;2022-11-20T14:27:14;8.10;99.90
423;DHT22;198;48.752;9.180;2022-11-20T14:29:40;8.10;99.90
423;DHT22;198;48.752;9.180;2022-11-20T14:32:08;8.10;99.90
423;DHT22;198;48.752;9.180;2022-11-20T14:34:38;8.00;99.90
423;DHT22;198;48.752;9.180;2022-11-20T14:37:09;7.90;99.90
423;DHT22;198;48.752;9.180;2022-11-20T14:39:37;8.00;99.90
423;DHT22;198;48.752;9.180;2022-11-20T14:42:15;7.90;99.90
423;DHT22;198;48.752;9.180;2022-11-20T14:44:42;8.00;99.90
423;DHT22;198;48.752;9.180;2022-11-20T14:47:11;8.00;99.90
423;DHT22;198;48.752;9.180;2022-11-20T14:49:38;8.00;99.90
423;DHT22;198;48.752;9.180;2022-11-20T14:52:19;7.90;99.90
423;DHT22;198;48.752;9.180;2022-11-20T14:54:49;7.80;99.90
423;DHT22;198;48.752;9.180;2022-11-20T14:57:31;7.80;99.90
423;DHT22;198;48.752;9.180;2022-11-20T15:02:42;7.90;99.90
423;DHT22;198;48.752;9.180;2022-11-20T15:05:08;8.00;99.90
423;DHT22;198;48.752;9.180;2022-11-20T15:07:38;8.00;99.90
423;DHT22;198;48.752;9.180;2022-11-20T15:10:10;8.00;99.90
423;DHT22;198;48.752;9.180;2022-11-20T15:12:55;8.00;99.90
423;DHT22;198;48.752;9.180;2022-11-20T15:15:30;8.00;99.90
423;DHT22;198;48.752;9.180;2022-11-20T15:17:56;8.00;99.90
423;DHT22;198;48.752;9.180;2022-11-20T15:20:25;8.00;99.90
423;DHT22;198;48.752;9.180;2022-11-20T15:22:51;7.90;99.90
423;DHT22;198;48.752;9.180;2022-11-20T15:25:18;7.80;99.90
423;DHT22;198;48.752;9.180;2022-11-20T15:27:44;7.70;99.90
423;DHT22;198;48.752;9.180;2022-11-20T15:30:18;7.60;99.90
423;DHT22;198;48.752;9.180;2022-11-20T15:32:44;7.60;99.90
423;DHT22;198;48.752;9.180;2022-11-20T15:35:10;7.50;99.90
423;DHT22;198;48.752;9.180;2022-11-20T15:37:38;7.40;99.90
423;DHT22;198;48.752;9.180;2022-11-20T15:40:04;7.30;99.90
423;DHT22;198;48.752;9.180;2022-11-20T15:42:30;7.20;99.90
423;DHT22;198;48.752;9.180;2022-11-20T15:44:56;7.10;99.90
423;DHT22;198;48.752;9.180;2022-11-20T15:47:26;7.10;99.90
423;DHT22;198;48.752;9.180;2022-11-20T15:49:52;7.00;99.90
423;DHT22;198;48.752;9.180;2022-11-20T15:52:18;7.00;99.90
423;DHT22;198;48.752;9.180;2022-11-20T15:54:43;7.00;99.90
423;DHT22;198;48.752;9.180;2022-11-20T15:57:09;6.90;99.90
423;DHT22;198;48.752;9.180;2022-11-20T15:59:34;6.90;99.90
423;DHT22;198;48.752;9.180;2022-11-20T16:02:09;6.80;99.90
423;DHT22;198;48.752;9.180;2022-11-20T16:04:35;6.80;99.90
423;DHT22;198;48.752;9.180;2022-11-20T16:07:01;6.80;99.90
423;DHT22;198;48.752;9.180;2022-11-20T16:09:26;6.80;99.90
423;DHT22;198;48.752;9.180;2022-11-20T16:11:52;6.80;99.90
423;DHT22;198;48.752;9.180;2022-11-20T16:14:17;6.80;99.90
423;DHT22;198;48.752;9.180;2022-11-20T16:17:02;6.90;99.90
423;DHT22;198;48.752;9.180;2022-11-20T16:19:28;6.90;99.90
423;DHT22;198;48.752;9.180;2022-11-20T16:21:53;6.90;99.90
423;DHT22;198;48.752;9.180;2022-11-20T16:24:19;6.90;99.90
423;DHT22;198;48.752;9.180;2022-11-20T16:26:45;7.00;99.90
423;DHT22;198;48.752;9.180;2022-11-20T16:29:10;7.10;99.90
423;DHT22;198;48.752;9.180;2022-11-20T16:31:36;7.10;99.90
423;DHT22;198;48.752;9.180;2022-11-20T16:34:04;7.10;99.90
423;DHT22;198;48.752;9.180;2022-11-20T16:36:31;7.10;99.90
423;DHT22;198;48.752;9.180;2022-11-20T16:39:02;7.20;99.90
423;DHT22;198;48.752;9.180;2022-11-20T16:41:30;7.20;99.90
423;DHT22;198;48.752;9.180;2022-11-20T16:43:59;7.20;99.90
423;DHT22;198;48.752;9.180;2022-11-20T16:46:30;7.20;99.90
423;DHT22;198;48.752;9.180;2022-11-20T16:49:01;7.30;99.90
423;DHT22;198;48.752;9.180;2022-11-20T16:51:29;7.30;99.90
423;DHT22;198;48.752;9.180;2022-11-20T16:53:55;7.20;99.90
423;DHT22;198;48.752;9.180;2022-11-20T16:56:23;7.30;99.90
423;DHT22;198;48.752;9.180;2022-11-20T16:58:50;7.30;99.90
423;DHT22;198;48.752;9.180;2022-11-20T17:01:18;7.30;99.90
423;DHT22;198;48.752;9.180;2022-11-20T17:03:46;7.30;99.90
423;DHT22;198;48.752;9.180;2022-11-20T17:06:20;7.30;99.90
423;DHT22;198;48.752;9.180;2022-11-20T17:08:46;7.30;99.90
423;DHT22;198;48.752;9.180;2022-11-20T17:11:14;7.30;99.90
423;DHT22;198;48.752;9.180;2022-11-20T17:13:40;7.20;99.90
423;DHT22;198;48.752;9.180;2022-11-20T17:16:11;7.20;99.90
423;DHT22;198;48.752;9.180;2022-11-20T17:18:37;7.20;99.90
423;DHT22;198;48.752;9.180;2022-11-20T17:21:03;7.30;99.90
423;DHT22;198;48.752;9.180;2022-11-20T17:23:35;7.30;99.90
423;DHT22;198;48.752;9.180;2022-11-20T17:26:08;7.30;99.90
423;DHT22;198;48.752;9.180;2022-11-20T17:28:34;7.30;99.90
423;DHT22;198;48.752;9.180;2022-11-20T17:31:01;7.30;99.90
423;DHT22;198;48.752;9.180;2022-11-20T17:33:27;7.20;99.90
423;DHT22;198;48.752;9.180;2022-11-20T17:35:53;7.20;99.90
423;DHT22;198;48.752;9.180;2022-11-20T17:38:19;7.10;99.90
423;DHT22;198;48.752;9.180;2022-11-20T17:40:44;7.10;99.90
423;DHT22;198;48.752;9.180;2022-11-20T17:43:10;7.10;99.90
423;DHT22;198;48.752;9.180;2022-11-20T17:45:36;7.10;99.90
423;DHT22;198;48.752;9.180;2022-11-20T17:48:02;7.10;99.90
423;DHT22;198;48.752;9.180;2022-11-20T17:50:28;7.10;99.90
423;DHT22;198;48.752;9.180;2022-11-20T17:52:53;7.10;99.90
423;DHT22;198;48.752;9.180;2022-11-20T17:55:19;7.00;99.90
423;DHT22;198;48.752;9.180;2022-11-20T17:57:44;7.00;99.90
423;DHT22;198;48.752;9.180;2022-11-20T18:00:21;7.10;99.90
423;DHT22;198;48.752;9.180;2022-11-20T18:02:47;7.10;99.90
423;DHT22;198;48.752;9.180;2022-11-20T18:05:14;7.10;99.90
423;DHT22;198;48.752;9.180;2022-11-20T18:07:40;7.10;99.90
423;DHT22;198;48.752;9.180;2022-11-20T18:10:06;7.10;99.90
423;DHT22;198;48.752;9.180;2022-11-20T18:12:32;7.20;99.90
423;DHT22;198;48.752;9.180;2022-11-20T18:14:58;7.20;99.90
423;DHT22;198;48.752;9.180;2022-11-20T18:17:23;7.20;99.90
423;DHT22;198;48.752;9.180;2022-11-20T18:19:49;7.20;99.90
423;DHT22;198;48.752;9.180;2022-11-20T18:22:16;7.20;99.90
423;DHT22;198;48.752;9.180;2022-11-20T18:24:42;7.10;99.90
423;DHT22;198;48.752;9.180;2022-11-20T18:27:16;7.20;99.90
423;DHT22;198;48.752;9.180;2022-11-20T18:29:41;7.20;99.90
423;DHT22;198;48.752;9.180;2022-11-20T18:32:07;7.20;99.90
423;DHT22;198;48.752;9.180;2022-11-20T18:34:33;7.30;99.90